sensor_id;sensor_type;location;lat;lon;timestamp;P1;durP1;ratioP1;P2;durP2;ratioP2
80625;SDS011;69982;51.758;5.784;2023-07-31T03:38:44;13.20;;;3.70;;
80625;SDS011;69982;51.758;5.784;2023-07-31T03:41:10;13.70;;;3.50;;
80625;SDS011;69982;51.758;5.784;2023-07-31T03:43:36;16.60;;;4.10;;
80625;SDS011;69982;51.758;5.784;2023-07-31T03:46:03;16.00;;;4.10;;
80625;SDS011;69982;51.758;5.784;2023-07-31T03:48:29;12.70;;;3.60;;
80625;SDS011;69982;51.758;5.784;2023-07-31T03:50:55;15.40;;;3.80;;
80625;SDS011;69982;51.758;5.784;2023-07-31T03:53:22;14.40;;;3.30;;
80625;SDS011;69982;51.758;5.784;2023-07-31T03:55:48;17.20;;;3.90;;
80625;SDS011;69982;51.758;5.784;2023-07-31T03:58:15;14.10;;;4.00;;
80625;SDS011;69982;51.758;5.784;2023-07-31T04:00:41;17.00;;;3.20;;
80625;SDS011;69982;51.758;5.784;2023-07-31T04:03:08;15.50;;;3.20;;
80625;SDS011;69982;51.758;5.784;2023-07-31T04:05:37;17.00;;;4.20;;
80625;SDS011;69982;51.758;5.784;2023-07-31T04:08:04;14.30;;;3.60;;
80625;SDS011;69982;51.758;5.784;2023-07-31T04:10:30;14.40;;;3.90;;
80625;SDS011;69982;51.758;5.784;2023-07-31T04:12:59;15.00;;;3.50;;
80625;SDS011;69982;51.758;5.784;2023-07-31T04:15:26;10.80;;;3.30;;
80625;SDS011;69982;51.758;5.784;2023-07-31T04:17:52;13.20;;;3.10;;
80625;SDS011;69982;51.758;5.784;2023-07-31T04:20:19;13.70;;;3.30;;
80625;SDS011;69982;51.758;5.784;2023-07-31T04:22:45;14.70;;;3.20;;
80625;SDS011;69982;51.758;5.784;2023-07-31T04:25:11;10.40;;;3.10;;
80625;SDS011;69982;51.758;5.784;2023-07-31T04:27:37;13.20;;;3.80;;
80625;SDS011;69982;51.758;5.784;2023-07-31T04:30:04;15.80;;;3.30;;
80625;SDS011;69982;51.758;5.784;2023-07-31T04:32:31;10.40;;;3.00;;
80625;SDS011;69982;51.758;5.784;2023-07-31T04:34:57;12.80;;;3.30;;
80625;SDS011;69982;51.758;5.784;2023-07-31T04:37:23;13.00;;;3.20;;
80625;SDS011;69982;51.758;5.784;2023-07-31T04:39:49;12.50;;;3.40;;
80625;SDS011;69982;51.758;5.784;2023-07-31T04:42:16;13.70;;;2.90;;
80625;SDS011;69982;51.758;5.784;2023-07-31T04:44:42;11.50;;;3.10;;
80625;SDS011;69982;51.758;5.784;2023-07-31T04:47:08;12.40;;;2.80;;
80625;SDS011;69982;51.758;5.784;2023-07-31T04:49:34;12.60;;;2.80;;
80625;SDS011;69982;51.758;5.784;2023-07-31T04:52:00;10.50;;;2.70;;
80625;SDS011;69982;51.758;5.784;2023-07-31T04:54:27;13.00;;;3.40;;
80625;SDS011;69982;51.758;5.784;2023-07-31T04:56:53;13.00;;;4.20;;
80625;SDS011;69982;51.758;5.784;2023-07-31T04:59:19;10.30;;;2.80;;
80625;SDS011;69982;51.758;5.784;2023-07-31T05:01:46;11.40;;;3.40;;
80625;SDS011;69982;51.758;5.784;2023-07-31T05:04:12;14.80;;;2.80;;
80625;SDS011;69982;51.758;5.784;2023-07-31T05:09:06;12.20;;;3.00;;
80625;SDS011;69982;51.758;5.784;2023-07-31T05:11:33;10.10;;;2.70;;
80625;SDS011;69982;51.758;5.784;2023-07-31T05:13:59;16.40;;;3.40;;
80625;SDS011;69982;51.758;5.784;2023-07-31T05:16:25;9.50;;;2.80;;
80625;SDS011;69982;51.758;5.784;2023-07-31T05:18:51;10.10;;;2.90;;
80625;SDS011;69982;51.758;5.784;2023-07-31T05:21:17;10.90;;;2.90;;
80625;SDS011;69982;51.758;5.784;2023-07-31T05:23:44;10.90;;;2.80;;
80625;SDS011;69982;51.758;5.784;2023-07-31T05:26:10;13.00;;;3.00;;
80625;SDS011;69982;51.758;5.784;2023-07-31T05:28:36;9.80;;;2.60;;
80625;SDS011;69982;51.758;5.784;2023-07-31T05:31:03;13.60;;;3.60;;
80625;SDS011;69982;51.758;5.784;2023-07-31T05:33:30;8.30;;;3.00;;
80625;SDS011;69982;51.758;5.784;2023-07-31T05:35:57;13.40;;;2.90;;
80625;SDS011;69982;51.758;5.784;2023-07-31T05:38:23;10.30;;;3.40;;
80625;SDS011;69982;51.758;5.784;2023-07-31T05:40:49;9.80;;;3.00;;
80625;SDS011;69982;51.758;5.784;2023-07-31T05:43:15;15.10;;;3.30;;
80625;SDS011;69982;51.758;5.784;2023-07-31T05:45:42;14.30;;;3.00;;
80625;SDS011;69982;51.758;5.784;2023-07-31T05:48:09;8.90;;;2.70;;
80625;SDS011;69982;51.758;5.784;2023-07-31T05:50:35;10.30;;;3.50;;
80625;SDS011;69982;51.758;5.784;2023-07-31T05:53:01;12.80;;;3.20;;
80625;SDS011;69982;51.758;5.784;2023-07-31T05:55:28;10.30;;;3.50;;
80625;SDS011;69982;51.758;5.784;2023-07-31T05:57:54;12.10;;;3.70;;
80625;SDS011;69982;51.758;5.784;2023-07-31T06:00:21;11.60;;;3.30;;
80625;SDS011;69982;51.758;5.784;2023-07-31T06:02:47;11.90;;;2.80;;
80625;SDS011;69982;51.758;5.784;2023-07-31T06:05:14;10.00;;;2.40;;
80625;SDS011;69982;51.758;5.784;2023-07-31T06:07:41;15.60;;;3.40;;
80625;SDS011;69982;51.758;5.784;2023-07-31T06:10:07;9.80;;;3.20;;
80625;SDS011;69982;51.758;5.784;2023-07-31T06:12:34;7.90;;;2.90;;
80625;SDS011;69982;51.758;5.784;2023-07-31T06:15:02;9.50;;;2.80;;
80625;SDS011;69982;51.758;5.784;2023-07-31T06:19:56;8.40;;;3.20;;
80625;SDS011;69982;51.758;5.784;2023-07-31T06:22:22;8.50;;;2.10;;
80625;SDS011;69982;51.758;5.784;2023-07-31T06:24:49;7.40;;;2.30;;
80625;SDS011;69982;51.758;5.784;2023-07-31T06:27:15;6.90;;;2.30;;
80625;SDS011;69982;51.758;5.784;2023-07-31T06:29:42;11.30;;;3.80;;
80625;SDS011;69982;51.758;5.784;2023-07-31T06:32:08;5.90;;;1.80;;
80625;SDS011;69982;51.758;5.784;2023-07-31T06:34:34;9.60;;;1.80;;
80625;SDS011;69982;51.758;5.784;2023-07-31T06:37:01;6.10;;;1.60;;
80625;SDS011;69982;51.758;5.784;2023-07-31T06:39:27;5.50;;;1.70;;
80625;SDS011;69982;51.758;5.784;2023-07-31T06:41:53;4.10;;;1.20;;
80625;SDS011;69982;51.758;5.784;2023-07-31T06:44:19;5.70;;;1.40;;
80625;SDS011;69982;51.758;5.784;2023-07-31T06:46:46;5.40;;;1.40;;
80625;SDS011;69982;51.758;5.784;2023-07-31T06:49:12;4.90;;;1.30;;
80625;SDS011;69982;51.758;5.784;2023-07-31T06:51:41;3.50;;;1.20;;
80625;SDS011;69982;51.758;5.784;2023-07-31T06:54:08;5.50;;;1.30;;
80625;SDS011;69982;51.758;5.784;2023-07-31T06:56:34;4.50;;;1.30;;
80625;SDS011;69982;51.758;5.784;2023-07-31T06:59:01;4.70;;;1.20;;
80625;SDS011;69982;51.758;5.784;2023-07-31T07:01:28;3.40;;;0.90;;
80625;SDS011;69982;51.758;5.784;2023-07-31T07:03:54;3.30;;;1.00;;
80625;SDS011;69982;51.758;5.784;2023-07-31T07:06:21;2.70;;;0.80;;
80625;SDS011;69982;51.758;5.784;2023-07-31T07:08:48;3.20;;;0.80;;
80625;SDS011;69982;51.758;5.784;2023-07-31T07:11:15;4.10;;;1.10;;
80625;SDS011;69982;51.758;5.784;2023-07-31T07:13:41;3.40;;;1.00;;
80625;SDS011;69982;51.758;5.784;2023-07-31T07:16:07;2.80;;;0.90;;
80625;SDS011;69982;51.758;5.784;2023-07-31T07:18:34;4.80;;;1.00;;
80625;SDS011;69982;51.758;5.784;2023-07-31T07:21:01;2.50;;;0.80;;
80625;SDS011;69982;51.758;5.784;2023-07-31T07:23:28;4.10;;;0.80;;
80625;SDS011;69982;51.758;5.784;2023-07-31T07:25:54;4.30;;;0.90;;
80625;SDS011;69982;51.758;5.784;2023-07-31T07:28:21;4.00;;;0.90;;
80625;SDS011;69982;51.758;5.784;2023-07-31T07:30:51;6.70;;;1.00;;
80625;SDS011;69982;51.758;5.784;2023-07-31T07:33:19;3.00;;;0.80;;
80625;SDS011;69982;51.758;5.784;2023-07-31T07:35:45;3.00;;;1.00;;
80625;SDS011;69982;51.758;5.784;2023-07-31T07:38:13;3.50;;;0.90;;
80625;SDS011;69982;51.758;5.784;2023-07-31T07:40:40;3.90;;;1.00;;
80625;SDS011;69982;51.758;5.784;2023-07-31T07:43:07;3.40;;;1.00;;
80625;SDS011;69982;51.758;5.784;2023-07-31T07:45:33;2.90;;;0.80;;
80625;SDS011;69982;51.758;5.784;2023-07-31T07:48:00;2.90;;;0.90;;
80625;SDS011;69982;51.758;5.784;2023-07-31T07:50:26;4.20;;;1.10;;
80625;SDS011;69982;51.758;5.784;2023-07-31T07:52:52;3.10;;;0.90;;
80625;SDS011;69982;51.758;5.784;2023-07-31T07:55:19;3.00;;;1.00;;
80625;SDS011;69982;51.758;5.784;2023-07-31T07:57:45;3.40;;;1.10;;
80625;SDS011;69982;51.758;5.784;2023-07-31T08:00:12;2.80;;;0.70;;
80625;SDS011;69982;51.758;5.784;2023-07-31T08:02:39;3.30;;;1.30;;
80625;SDS011;69982;51.758;5.784;2023-07-31T08:05:06;4.00;;;1.30;;
80625;SDS011;69982;51.758;5.784;2023-07-31T08:07:32;4.60;;;0.90;;
80625;SDS011;69982;51.758;5.784;2023-07-31T08:09:58;5.10;;;1.20;;
80625;SDS011;69982;51.758;5.784;2023-07-31T08:12:25;2.70;;;0.90;;
80625;SDS011;69982;51.758;5.784;2023-07-31T08:14:51;3.10;;;1.20;;
80625;SDS011;69982;51.758;5.784;2023-07-31T08:17:18;4.10;;;1.10;;
80625;SDS011;69982;51.758;5.784;2023-07-31T08:19:44;4.10;;;1.00;;
80625;SDS011;69982;51.758;5.784;2023-07-31T08:22:11;4.10;;;1.30;;
80625;SDS011;69982;51.758;5.784;2023-07-31T08:24:37;4.70;;;1.30;;
80625;SDS011;69982;51.758;5.784;2023-07-31T08:27:03;3.40;;;1.50;;
80625;SDS011;69982;51.758;5.784;2023-07-31T08:29:31;4.90;;;1.60;;
80625;SDS011;69982;51.758;5.784;2023-07-31T08:31:57;5.30;;;1.50;;
80625;SDS011;69982;51.758;5.784;2023-07-31T08:34:24;4.70;;;1.70;;
80625;SDS011;69982;51.758;5.784;2023-07-31T08:36:50;6.00;;;1.90;;
80625;SDS011;69982;51.758;5.784;2023-07-31T08:39:17;4.60;;;1.50;;
80625;SDS011;69982;51.758;5.784;2023-07-31T08:41:43;4.30;;;1.40;;
80625;SDS011;69982;51.758;5.784;2023-07-31T08:44:10;5.00;;;1.60;;
80625;SDS011;69982;51.758;5.784;2023-07-31T08:46:38;3.70;;;1.40;;
80625;SDS011;69982;51.758;5.784;2023-07-31T08:49:06;3.40;;;1.30;;
80625;SDS011;69982;51.758;5.784;2023-07-31T08:51:34;4.20;;;1.40;;
80625;SDS011;69982;51.758;5.784;2023-07-31T08:54:01;4.30;;;1.60;;
80625;SDS011;69982;51.758;5.784;2023-07-31T08:56:30;4.00;;;1.80;;
80625;SDS011;69982;51.758;5.784;2023-07-31T08:58:58;3.70;;;1.30;;
80625;SDS011;69982;51.758;5.784;2023-07-31T09:01:28;3.60;;;1.20;;
80625;SDS011;69982;51.758;5.784;2023-07-31T09:03:57;3.40;;;1.20;;
80625;SDS011;69982;51.758;5.784;2023-07-31T09:06:27;5.60;;;1.70;;
80625;SDS011;69982;51.758;5.784;2023-07-31T09:08:55;3.00;;;1.10;;
80625;SDS011;69982;51.758;5.784;2023-07-31T09:11:22;4.70;;;1.50;;
80625;SDS011;69982;51.758;5.784;2023-07-31T09:13:50;3.50;;;1.20;;
80625;SDS011;69982;51.758;5.784;2023-07-31T09:16:18;5.10;;;1.30;;
80625;SDS011;69982;51.758;5.784;2023-07-31T09:18:54;5.60;;;1.50;;
80625;SDS011;69982;51.758;5.784;2023-07-31T09:21:23;4.50;;;1.30;;
80625;SDS011;69982;51.758;5.784;2023-07-31T09:23:49;4.70;;;1.40;;
80625;SDS011;69982;51.758;5.784;2023-07-31T09:26:39;7.30;;;1.80;;
80625;SDS011;69982;51.758;5.784;2023-07-31T09:29:07;6.30;;;2.40;;
80625;SDS011;69982;51.758;5.784;2023-07-31T09:31:45;5.10;;;1.70;;
80625;SDS011;69982;51.758;5.784;2023-07-31T09:34:11;7.20;;;2.60;;
80625;SDS011;69982;51.758;5.784;2023-07-31T09:36:46;4.40;;;2.10;;
80625;SDS011;69982;51.758;5.784;2023-07-31T09:39:14;5.10;;;1.90;;
80625;SDS011;69982;51.758;5.784;2023-07-31T09:41:42;6.40;;;2.30;;
80625;SDS011;69982;51.758;5.784;2023-07-31T09:44:10;6.40;;;2.30;;
80625;SDS011;69982;51.758;5.784;2023-07-31T09:46:37;5.00;;;2.00;;
80625;SDS011;69982;51.758;5.784;2023-07-31T09:49:08;7.20;;;2.50;;
80625;SDS011;69982;51.758;5.784;2023-07-31T09:51:38;7.40;;;3.30;;
80625;SDS011;69982;51.758;5.784;2023-07-31T09:54:10;7.20;;;2.80;;
80625;SDS011;69982;51.758;5.784;2023-07-31T09:56:39;7.60;;;3.20;;
80625;SDS011;69982;51.758;5.784;2023-07-31T09:59:10;5.50;;;2.70;;
80625;SDS011;69982;51.758;5.784;2023-07-31T10:01:39;12.00;;;2.90;;
80625;SDS011;69982;51.758;5.784;2023-07-31T10:04:07;9.20;;;3.10;;
80625;SDS011;69982;51.758;5.784;2023-07-31T10:06:36;7.70;;;3.00;;
80625;SDS011;69982;51.758;5.784;2023-07-31T10:09:07;10.40;;;2.90;;
80625;SDS011;69982;51.758;5.784;2023-07-31T10:11:37;11.20;;;3.10;;
80625;SDS011;69982;51.758;5.784;2023-07-31T10:14:07;8.60;;;3.60;;
80625;SDS011;69982;51.758;5.784;2023-07-31T10:16:35;7.80;;;2.90;;
80625;SDS011;69982;51.758;5.784;2023-07-31T10:19:04;8.40;;;3.60;;
80625;SDS011;69982;51.758;5.784;2023-07-31T10:21:31;7.50;;;3.10;;
80625;SDS011;69982;51.758;5.784;2023-07-31T10:24:03;8.30;;;3.40;;
80625;SDS011;69982;51.758;5.784;2023-07-31T10:26:31;9.60;;;3.40;;
80625;SDS011;69982;51.758;5.784;2023-07-31T10:29:01;7.30;;;3.30;;
80625;SDS011;69982;51.758;5.784;2023-07-31T10:31:28;10.60;;;3.60;;
80625;SDS011;69982;51.758;5.784;2023-07-31T10:33:55;9.80;;;3.50;;
80625;SDS011;69982;51.758;5.784;2023-07-31T10:36:24;9.40;;;3.40;;
80625;SDS011;69982;51.758;5.784;2023-07-31T10:38:51;7.50;;;2.50;;
80625;SDS011;69982;51.758;5.784;2023-07-31T10:41:18;9.60;;;3.30;;
80625;SDS011;69982;51.758;5.784;2023-07-31T10:43:47;6.70;;;2.60;;
80625;SDS011;69982;51.758;5.784;2023-07-31T10:46:14;7.90;;;3.30;;
80625;SDS011;69982;51.758;5.784;2023-07-31T10:48:41;9.10;;;3.30;;
80625;SDS011;69982;51.758;5.784;2023-07-31T10:51:08;11.00;;;3.20;;
80625;SDS011;69982;51.758;5.784;2023-07-31T10:53:36;7.60;;;3.20;;
80625;SDS011;69982;51.758;5.784;2023-07-31T10:56:07;7.60;;;3.40;;
80625;SDS011;69982;51.758;5.784;2023-07-31T10:58:37;7.00;;;2.90;;
80625;SDS011;69982;51.758;5.784;2023-07-31T11:01:04;7.60;;;2.80;;
80625;SDS011;69982;51.758;5.784;2023-07-31T11:03:41;7.50;;;2.60;;
80625;SDS011;69982;51.758;5.784;2023-07-31T11:06:09;6.60;;;2.50;;
80625;SDS011;69982;51.758;5.784;2023-07-31T11:08:40;6.60;;;2.90;;
80625;SDS011;69982;51.758;5.784;2023-07-31T11:11:09;7.10;;;2.60;;
80625;SDS011;69982;51.758;5.784;2023-07-31T11:13:40;5.30;;;2.60;;
80625;SDS011;69982;51.758;5.784;2023-07-31T11:18:50;8.70;;;3.10;;
80625;SDS011;69982;51.758;5.784;2023-07-31T11:21:19;9.00;;;2.70;;
80625;SDS011;69982;51.758;5.784;2023-07-31T11:23:51;5.60;;;2.90;;
80625;SDS011;69982;51.758;5.784;2023-07-31T11:26:19;8.30;;;2.50;;
80625;SDS011;69982;51.758;5.784;2023-07-31T11:28:46;6.90;;;2.40;;
80625;SDS011;69982;51.758;5.784;2023-07-31T11:31:13;8.90;;;2.70;;
80625;SDS011;69982;51.758;5.784;2023-07-31T11:33:40;5.50;;;2.60;;
80625;SDS011;69982;51.758;5.784;2023-07-31T11:36:06;5.80;;;2.10;;
80625;SDS011;69982;51.758;5.784;2023-07-31T11:38:40;6.30;;;2.60;;
80625;SDS011;69982;51.758;5.784;2023-07-31T11:41:06;4.70;;;2.10;;
80625;SDS011;69982;51.758;5.784;2023-07-31T11:43:33;7.30;;;2.70;;
80625;SDS011;69982;51.758;5.784;2023-07-31T11:46:00;5.80;;;2.50;;
80625;SDS011;69982;51.758;5.784;2023-07-31T11:48:33;6.20;;;2.30;;
80625;SDS011;69982;51.758;5.784;2023-07-31T11:51:02;9.40;;;2.60;;
80625;SDS011;69982;51.758;5.784;2023-07-31T11:53:36;8.60;;;3.00;;
80625;SDS011;69982;51.758;5.784;2023-07-31T11:56:10;5.90;;;2.50;;
80625;SDS011;69982;51.758;5.784;2023-07-31T11:58:39;5.60;;;2.40;;
80625;SDS011;69982;51.758;5.784;2023-07-31T12:01:09;7.50;;;2.80;;
80625;SDS011;69982;51.758;5.784;2023-07-31T12:03:35;6.60;;;2.90;;
80625;SDS011;69982;51.758;5.784;2023-07-31T12:06:02;7.60;;;2.70;;
80625;SDS011;69982;51.758;5.784;2023-07-31T12:08:28;6.80;;;2.80;;
80625;SDS011;69982;51.758;5.784;2023-07-31T12:11:01;8.20;;;2.50;;
80625;SDS011;69982;51.758;5.784;2023-07-31T12:13:30;8.60;;;2.50;;
80625;SDS011;69982;51.758;5.784;2023-07-31T12:15:58;6.30;;;2.30;;
80625;SDS011;69982;51.758;5.784;2023-07-31T12:18:26;7.40;;;2.50;;
80625;SDS011;69982;51.758;5.784;2023-07-31T12:20:54;7.20;;;2.60;;
80625;SDS011;69982;51.758;5.784;2023-07-31T12:23:23;5.20;;;2.30;;
80625;SDS011;69982;51.758;5.784;2023-07-31T12:28:30;6.40;;;2.50;;
80625;SDS011;69982;51.758;5.784;2023-07-31T12:31:00;7.10;;;2.50;;
80625;SDS011;69982;51.758;5.784;2023-07-31T12:33:36;6.50;;;2.40;;
80625;SDS011;69982;51.758;5.784;2023-07-31T12:36:08;5.10;;;2.10;;
80625;SDS011;69982;51.758;5.784;2023-07-31T12:38:36;6.00;;;2.10;;
80625;SDS011;69982;51.758;5.784;2023-07-31T12:41:02;5.50;;;2.00;;
80625;SDS011;69982;51.758;5.784;2023-07-31T12:43:29;5.00;;;1.80;;
80625;SDS011;69982;51.758;5.784;2023-07-31T12:45:55;5.20;;;1.60;;
80625;SDS011;69982;51.758;5.784;2023-07-31T12:48:22;7.00;;;2.10;;
80625;SDS011;69982;51.758;5.784;2023-07-31T12:50:49;6.30;;;1.90;;
80625;SDS011;69982;51.758;5.784;2023-07-31T12:53:15;5.30;;;1.70;;
80625;SDS011;69982;51.758;5.784;2023-07-31T12:55:42;4.70;;;1.40;;
80625;SDS011;69982;51.758;5.784;2023-07-31T12:58:08;5.30;;;1.70;;
80625;SDS011;69982;51.758;5.784;2023-07-31T13:00:34;6.30;;;2.10;;
80625;SDS011;69982;51.758;5.784;2023-07-31T13:03:01;4.60;;;1.80;;
80625;SDS011;69982;51.758;5.784;2023-07-31T13:05:27;5.90;;;2.30;;
80625;SDS011;69982;51.758;5.784;2023-07-31T13:07:54;8.10;;;2.20;;
80625;SDS011;69982;51.758;5.784;2023-07-31T13:10:22;5.90;;;1.60;;
80625;SDS011;69982;51.758;5.784;2023-07-31T13:12:49;5.80;;;2.10;;
80625;SDS011;69982;51.758;5.784;2023-07-31T13:15:15;6.90;;;2.50;;
80625;SDS011;69982;51.758;5.784;2023-07-31T13:17:42;6.00;;;2.30;;
80625;SDS011;69982;51.758;5.784;2023-07-31T13:20:08;8.30;;;2.40;;
80625;SDS011;69982;51.758;5.784;2023-07-31T13:22:35;7.00;;;3.00;;
80625;SDS011;69982;51.758;5.784;2023-07-31T13:25:01;7.10;;;3.00;;
80625;SDS011;69982;51.758;5.784;2023-07-31T13:27:27;7.80;;;2.30;;
80625;SDS011;69982;51.758;5.784;2023-07-31T13:29:54;7.30;;;2.20;;
80625;SDS011;69982;51.758;5.784;2023-07-31T13:32:20;9.10;;;3.10;;
80625;SDS011;69982;51.758;5.784;2023-07-31T13:34:47;7.10;;;3.10;;
80625;SDS011;69982;51.758;5.784;2023-07-31T13:37:14;7.10;;;2.60;;
80625;SDS011;69982;51.758;5.784;2023-07-31T13:39:41;8.90;;;3.10;;
80625;SDS011;69982;51.758;5.784;2023-07-31T13:42:08;7.70;;;3.00;;
80625;SDS011;69982;51.758;5.784;2023-07-31T13:44:38;7.70;;;2.80;;
80625;SDS011;69982;51.758;5.784;2023-07-31T13:47:05;7.70;;;3.10;;
80625;SDS011;69982;51.758;5.784;2023-07-31T13:49:31;9.10;;;3.40;;
80625;SDS011;69982;51.758;5.784;2023-07-31T13:51:58;9.00;;;3.50;;
80625;SDS011;69982;51.758;5.784;2023-07-31T13:54:24;7.30;;;2.70;;
80625;SDS011;69982;51.758;5.784;2023-07-31T13:56:52;8.90;;;3.10;;
80625;SDS011;69982;51.758;5.784;2023-07-31T13:59:19;8.60;;;3.50;;
80625;SDS011;69982;51.758;5.784;2023-07-31T14:01:46;9.40;;;3.00;;
80625;SDS011;69982;51.758;5.784;2023-07-31T14:04:12;8.10;;;3.20;;
80625;SDS011;69982;51.758;5.784;2023-07-31T14:06:39;7.80;;;3.00;;
80625;SDS011;69982;51.758;5.784;2023-07-31T14:09:05;8.80;;;3.60;;
80625;SDS011;69982;51.758;5.784;2023-07-31T14:11:32;8.60;;;3.30;;
80625;SDS011;69982;51.758;5.784;2023-07-31T14:13:58;7.60;;;3.10;;
80625;SDS011;69982;51.758;5.784;2023-07-31T14:16:24;7.80;;;3.20;;
80625;SDS011;69982;51.758;5.784;2023-07-31T14:18:51;7.90;;;3.00;;
80625;SDS011;69982;51.758;5.784;2023-07-31T14:21:19;10.10;;;3.70;;
80625;SDS011;69982;51.758;5.784;2023-07-31T14:23:46;10.90;;;3.10;;
80625;SDS011;69982;51.758;5.784;2023-07-31T14:26:12;9.00;;;3.10;;
80625;SDS011;69982;51.758;5.784;2023-07-31T14:28:39;6.90;;;2.70;;
80625;SDS011;69982;51.758;5.784;2023-07-31T14:31:05;11.30;;;3.30;;
80625;SDS011;69982;51.758;5.784;2023-07-31T14:33:31;8.20;;;2.60;;
80625;SDS011;69982;51.758;5.784;2023-07-31T14:35:58;7.70;;;2.60;;
80625;SDS011;69982;51.758;5.784;2023-07-31T14:38:25;7.10;;;3.30;;
80625;SDS011;69982;51.758;5.784;2023-07-31T14:40:51;9.70;;;3.00;;
80625;SDS011;69982;51.758;5.784;2023-07-31T14:43:18;8.20;;;3.50;;
80625;SDS011;69982;51.758;5.784;2023-07-31T14:45:44;9.30;;;3.40;;
80625;SDS011;69982;51.758;5.784;2023-07-31T14:48:12;9.90;;;3.40;;
80625;SDS011;69982;51.758;5.784;2023-07-31T14:50:39;8.30;;;3.60;;
80625;SDS011;69982;51.758;5.784;2023-07-31T14:53:05;6.80;;;3.10;;
80625;SDS011;69982;51.758;5.784;2023-07-31T14:55:32;9.60;;;3.30;;
80625;SDS011;69982;51.758;5.784;2023-07-31T14:57:58;7.10;;;2.70;;
80625;SDS011;69982;51.758;5.784;2023-07-31T15:00:24;6.60;;;3.00;;
80625;SDS011;69982;51.758;5.784;2023-07-31T15:02:52;5.60;;;2.20;;
80625;SDS011;69982;51.758;5.784;2023-07-31T15:05:19;8.10;;;3.20;;
80625;SDS011;69982;51.758;5.784;2023-07-31T15:07:45;8.50;;;3.30;;
80625;SDS011;69982;51.758;5.784;2023-07-31T15:10:12;7.40;;;2.90;;
80625;SDS011;69982;51.758;5.784;2023-07-31T15:12:39;7.90;;;3.20;;
80625;SDS011;69982;51.758;5.784;2023-07-31T15:15:06;7.80;;;3.10;;
80625;SDS011;69982;51.758;5.784;2023-07-31T15:17:33;9.10;;;2.80;;
80625;SDS011;69982;51.758;5.784;2023-07-31T15:19:59;5.40;;;2.50;;
80625;SDS011;69982;51.758;5.784;2023-07-31T15:22:26;6.70;;;2.90;;
80625;SDS011;69982;51.758;5.784;2023-07-31T15:24:53;7.80;;;3.50;;
80625;SDS011;69982;51.758;5.784;2023-07-31T15:27:19;7.60;;;3.20;;
80625;SDS011;69982;51.758;5.784;2023-07-31T15:29:45;10.50;;;3.50;;
80625;SDS011;69982;51.758;5.784;2023-07-31T15:32:11;10.20;;;3.20;;
80625;SDS011;69982;51.758;5.784;2023-07-31T15:34:38;7.10;;;3.00;;
80625;SDS011;69982;51.758;5.784;2023-07-31T15:37:04;4.70;;;1.90;;
80625;SDS011;69982;51.758;5.784;2023-07-31T15:39:30;8.30;;;2.00;;
80625;SDS011;69982;51.758;5.784;2023-07-31T15:41:57;6.90;;;1.70;;
80625;SDS011;69982;51.758;5.784;2023-07-31T15:44:23;7.60;;;2.20;;
80625;SDS011;69982;51.758;5.784;2023-07-31T15:46:49;6.20;;;2.20;;
80625;SDS011;69982;51.758;5.784;2023-07-31T15:49:16;4.70;;;1.60;;
80625;SDS011;69982;51.758;5.784;2023-07-31T15:51:42;5.90;;;1.80;;
80625;SDS011;69982;51.758;5.784;2023-07-31T15:54:08;6.30;;;1.60;;
80625;SDS011;69982;51.758;5.784;2023-07-31T15:56:35;6.70;;;1.60;;
80625;SDS011;69982;51.758;5.784;2023-07-31T15:59:01;5.50;;;1.40;;
80625;SDS011;69982;51.758;5.784;2023-07-31T16:01:27;4.50;;;1.60;;
80625;SDS011;69982;51.758;5.784;2023-07-31T16:03:54;5.10;;;1.40;;
80625;SDS011;69982;51.758;5.784;2023-07-31T16:06:20;7.20;;;1.50;;
80625;SDS011;69982;51.758;5.784;2023-07-31T16:08:47;5.40;;;1.30;;
80625;SDS011;69982;51.758;5.784;2023-07-31T16:11:13;5.40;;;1.30;;
80625;SDS011;69982;51.758;5.784;2023-07-31T16:13:39;2.90;;;0.80;;
80625;SDS011;69982;51.758;5.784;2023-07-31T16:16:06;3.60;;;1.20;;
80625;SDS011;69982;51.758;5.784;2023-07-31T16:18:32;6.30;;;1.00;;
80625;SDS011;69982;51.758;5.784;2023-07-31T16:20:58;3.10;;;1.00;;
80625;SDS011;69982;51.758;5.784;2023-07-31T16:23:24;3.40;;;1.00;;
80625;SDS011;69982;51.758;5.784;2023-07-31T16:25:51;3.80;;;0.90;;
80625;SDS011;69982;51.758;5.784;2023-07-31T16:28:17;3.10;;;0.80;;
80625;SDS011;69982;51.758;5.784;2023-07-31T16:30:44;2.50;;;0.70;;
80625;SDS011;69982;51.758;5.784;2023-07-31T16:33:11;5.60;;;1.10;;
80625;SDS011;69982;51.758;5.784;2023-07-31T16:35:37;3.90;;;0.90;;
80625;SDS011;69982;51.758;5.784;2023-07-31T16:38:04;4.00;;;0.90;;
80625;SDS011;69982;51.758;5.784;2023-07-31T16:40:30;2.40;;;0.60;;
80625;SDS011;69982;51.758;5.784;2023-07-31T16:42:56;4.70;;;1.10;;
80625;SDS011;69982;51.758;5.784;2023-07-31T16:45:23;4.80;;;0.80;;
80625;SDS011;69982;51.758;5.784;2023-07-31T16:47:49;3.20;;;0.90;;
80625;SDS011;69982;51.758;5.784;2023-07-31T16:50:15;3.50;;;0.70;;
80625;SDS011;69982;51.758;5.784;2023-07-31T16:52:42;5.00;;;1.00;;
80625;SDS011;69982;51.758;5.784;2023-07-31T16:55:09;4.10;;;0.80;;
80625;SDS011;69982;51.758;5.784;2023-07-31T16:57:35;2.10;;;0.50;;
80625;SDS011;69982;51.758;5.784;2023-07-31T17:00:02;4.10;;;0.60;;
80625;SDS011;69982;51.758;5.784;2023-07-31T17:02:29;2.40;;;0.60;;
80625;SDS011;69982;51.758;5.784;2023-07-31T17:04:55;2.90;;;0.60;;
80625;SDS011;69982;51.758;5.784;2023-07-31T17:07:21;2.20;;;0.50;;
80625;SDS011;69982;51.758;5.784;2023-07-31T17:09:48;3.00;;;0.50;;
80625;SDS011;69982;51.758;5.784;2023-07-31T17:12:15;2.80;;;0.60;;
80625;SDS011;69982;51.758;5.784;2023-07-31T17:14:41;2.20;;;0.50;;
80625;SDS011;69982;51.758;5.784;2023-07-31T17:17:07;2.10;;;0.40;;
80625;SDS011;69982;51.758;5.784;2023-07-31T17:19:33;2.40;;;0.70;;
80625;SDS011;69982;51.758;5.784;2023-07-31T17:21:59;1.90;;;0.50;;
80625;SDS011;69982;51.758;5.784;2023-07-31T17:24:26;2.30;;;0.50;;
80625;SDS011;69982;51.758;5.784;2023-07-31T17:26:52;3.20;;;0.50;;
80625;SDS011;69982;51.758;5.784;2023-07-31T17:29:18;3.70;;;0.50;;
80625;SDS011;69982;51.758;5.784;2023-07-31T17:31:44;3.30;;;0.50;;
80625;SDS011;69982;51.758;5.784;2023-07-31T17:34:11;2.00;;;0.50;;
80625;SDS011;69982;51.758;5.784;2023-07-31T17:36:37;1.10;;;0.30;;
80625;SDS011;69982;51.758;5.784;2023-07-31T17:39:04;1.30;;;0.40;;
80625;SDS011;69982;51.758;5.784;2023-07-31T17:41:30;2.80;;;0.60;;
80625;SDS011;69982;51.758;5.784;2023-07-31T17:43:57;2.20;;;0.40;;
80625;SDS011;69982;51.758;5.784;2023-07-31T17:46:23;2.50;;;0.20;;
80625;SDS011;69982;51.758;5.784;2023-07-31T17:48:50;1.50;;;0.40;;
80625;SDS011;69982;51.758;5.784;2023-07-31T17:51:16;2.10;;;0.40;;
80625;SDS011;69982;51.758;5.784;2023-07-31T17:53:42;2.30;;;0.40;;
80625;SDS011;69982;51.758;5.784;2023-07-31T17:56:08;1.40;;;0.30;;
80625;SDS011;69982;51.758;5.784;2023-07-31T17:58:35;2.50;;;0.50;;
80625;SDS011;69982;51.758;5.784;2023-07-31T18:01:01;1.50;;;0.40;;
80625;SDS011;69982;51.758;5.784;2023-07-31T18:03:28;2.10;;;0.30;;
80625;SDS011;69982;51.758;5.784;2023-07-31T18:05:55;1.30;;;0.40;;
80625;SDS011;69982;51.758;5.784;2023-07-31T18:08:21;1.10;;;0.20;;
80625;SDS011;69982;51.758;5.784;2023-07-31T18:10:48;1.60;;;0.40;;
80625;SDS011;69982;51.758;5.784;2023-07-31T18:13:14;1.80;;;0.40;;
80625;SDS011;69982;51.758;5.784;2023-07-31T18:15:45;2.20;;;0.40;;
80625;SDS011;69982;51.758;5.784;2023-07-31T18:18:12;2.10;;;0.40;;
80625;SDS011;69982;51.758;5.784;2023-07-31T18:20:39;1.40;;;0.30;;
80625;SDS011;69982;51.758;5.784;2023-07-31T18:23:06;1.40;;;0.30;;
80625;SDS011;69982;51.758;5.784;2023-07-31T18:25:32;1.90;;;0.40;;
80625;SDS011;69982;51.758;5.784;2023-07-31T18:27:58;1.90;;;0.30;;
80625;SDS011;69982;51.758;5.784;2023-07-31T18:30:25;1.50;;;0.40;;
80625;SDS011;69982;51.758;5.784;2023-07-31T18:32:51;1.10;;;0.30;;